sensor_id;sensor_type;location;lat;lon;timestamp;temperature;humidity
18882;DHT22;9573;50.948;11.600;2023-08-01T00:00:12;18.20;99.90
18882;DHT22;9573;50.948;11.600;2023-08-01T00:02:40;18.10;99.90
18882;DHT22;9573;50.948;11.600;2023-08-01T00:05:09;18.10;99.90
18882;DHT22;9573;50.948;11.600;2023-08-01T00:07:36;18.00;99.90
18882;DHT22;9573;50.948;11.600;2023-08-01T00:10:04;18.00;99.90
18882;DHT22;9573;50.948;11.600;2023-08-01T00:12:32;18.00;99.90
18882;DHT22;9573;50.948;11.600;2023-08-01T00:15:01;18.00;99.90
18882;DHT22;9573;50.948;11.600;2023-08-01T00:17:28;18.00;99.90
18882;DHT22;9573;50.948;11.600;2023-08-01T00:19:55;18.00;99.90
18882;DHT22;9573;50.948;11.600;2023-08-01T00:22:22;18.00;99.90
18882;DHT22;9573;50.948;11.600;2023-08-01T00:24:49;18.10;99.90
18882;DHT22;9573;50.948;11.600;2023-08-01T00:27:16;18.00;99.90
18882;DHT22;9573;50.948;11.600;2023-08-01T00:29:45;18.10;99.90
18882;DHT22;9573;50.948;11.600;2023-08-01T00:32:13;18.10;99.90
18882;DHT22;9573;50.948;11.600;2023-08-01T00:34:40;18.10;99.90
18882;DHT22;9573;50.948;11.600;2023-08-01T00:37:07;18.10;99.90
18882;DHT22;9573;50.948;11.600;2023-08-01T00:39:34;18.10;99.90
18882;DHT22;9573;50.948;11.600;2023-08-01T00:42:01;18.10;99.90
18882;DHT22;9573;50.948;11.600;2023-08-01T00:44:28;18.10;99.90
18882;DHT22;9573;50.948;11.600;2023-08-01T00:46:55;18.10;99.90
18882;DHT22;9573;50.948;11.600;2023-08-01T00:49:24;18.10;99.90
18882;DHT22;9573;50.948;11.600;2023-08-01T00:51:51;18.10;99.90
18882;DHT22;9573;50.948;11.600;2023-08-01T00:54:19;18.10;99.90
18882;DHT22;9573;50.948;11.600;2023-08-01T00:56:46;18.10;99.90
18882;DHT22;9573;50.948;11.600;2023-08-01T00:59:13;18.10;99.90
18882;DHT22;9573;50.948;11.600;2023-08-01T01:01:40;18.10;99.90
18882;DHT22;9573;50.948;11.600;2023-08-01T01:04:08;18.10;99.90
18882;DHT22;9573;50.948;11.600;2023-08-01T01:06:41;18.10;99.90
18882;DHT22;9573;50.948;11.600;2023-08-01T01:09:17;18.20;99.90
18882;DHT22;9573;50.948;11.600;2023-08-01T01:11:45;18.20;99.90
18882;DHT22;9573;50.948;11.600;2023-08-01T01:14:13;18.10;99.90
18882;DHT22;9573;50.948;11.600;2023-08-01T01:16:41;18.20;99.90
18882;DHT22;9573;50.948;11.600;2023-08-01T01:19:09;18.20;99.90
18882;DHT22;9573;50.948;11.600;2023-08-01T01:21:39;18.20;99.90
18882;DHT22;9573;50.948;11.600;2023-08-01T01:24:08;18.20;99.90
18882;DHT22;9573;50.948;11.600;2023-08-01T01:26:37;18.20;99.90
18882;DHT22;9573;50.948;11.600;2023-08-01T01:29:06;18.20;99.90
18882;DHT22;9573;50.948;11.600;2023-08-01T01:31:34;18.20;99.90
18882;DHT22;9573;50.948;11.600;2023-08-01T01:34:02;18.20;99.90
18882;DHT22;9573;50.948;11.600;2023-08-01T01:36:29;18.20;99.90
18882;DHT22;9573;50.948;11.600;2023-08-01T01:38:58;18.20;99.90
18882;DHT22;9573;50.948;11.600;2023-08-01T01:41:25;18.20;99.90
18882;DHT22;9573;50.948;11.600;2023-08-01T01:43:52;18.20;99.90
18882;DHT22;9573;50.948;11.600;2023-08-01T01:46:19;18.30;99.90
18882;DHT22;9573;50.948;11.600;2023-08-01T01:48:46;18.30;99.90
18882;DHT22;9573;50.948;11.600;2023-08-01T01:51:13;18.30;99.90
18882;DHT22;9573;50.948;11.600;2023-08-01T01:53:40;18.30;99.90
18882;DHT22;9573;50.948;11.600;2023-08-01T01:56:09;18.30;99.90
18882;DHT22;9573;50.948;11.600;2023-08-01T01:58:36;18.30;99.90
18882;DHT22;9573;50.948;11.600;2023-08-01T02:01:03;18.30;99.90
18882;DHT22;9573;50.948;11.600;2023-08-01T02:03:30;18.40;99.90
18882;DHT22;9573;50.948;11.600;2023-08-01T02:05:57;18.40;99.90
18882;DHT22;9573;50.948;11.600;2023-08-01T02:08:24;18.40;99.90
18882;DHT22;9573;50.948;11.600;2023-08-01T02:10:52;18.40;99.90
18882;DHT22;9573;50.948;11.600;2023-08-01T02:13:22;18.40;99.90
18882;DHT22;9573;50.948;11.600;2023-08-01T02:15:49;18.40;99.90
18882;DHT22;9573;50.948;11.600;2023-08-01T02:18:16;18.40;99.90
18882;DHT22;9573;50.948;11.600;2023-08-01T02:20:43;18.40;99.90
18882;DHT22;9573;50.948;11.600;2023-08-01T02:23:10;18.40;99.90
18882;DHT22;9573;50.948;11.600;2023-08-01T02:25:38;18.40;99.90
18882;DHT22;9573;50.948;11.600;2023-08-01T02:28:06;18.40;99.90
18882;DHT22;9573;50.948;11.600;2023-08-01T02:30:35;18.40;99.90
18882;DHT22;9573;50.948;11.600;2023-08-01T02:33:02;18.40;99.90
18882;DHT22;9573;50.948;11.600;2023-08-01T02:35:29;18.40;99.90
18882;DHT22;9573;50.948;11.600;2023-08-01T02:37:57;18.40;99.90
18882;DHT22;9573;50.948;11.600;2023-08-01T02:40:24;18.50;99.90
18882;DHT22;9573;50.948;11.600;2023-08-01T02:42:52;18.40;99.90
18882;DHT22;9573;50.948;11.600;2023-08-01T02:45:19;18.40;99.90
18882;DHT22;9573;50.948;11.600;2023-08-01T02:47:47;18.30;99.90
18882;DHT22;9573;50.948;11.600;2023-08-01T02:50:14;18.40;99.90
18882;DHT22;9573;50.948;11.600;2023-08-01T02:52:42;18.30;99.90
18882;DHT22;9573;50.948;11.600;2023-08-01T02:55:09;18.20;99.90
18882;DHT22;9573;50.948;11.600;2023-08-01T02:57:36;18.20;99.90
18882;DHT22;9573;50.948;11.600;2023-08-01T03:00:04;18.10;99.90
18882;DHT22;9573;50.948;11.600;2023-08-01T03:02:37;18.10;99.90
18882;DHT22;9573;50.948;11.600;2023-08-01T03:05:08;18.00;99.90
18882;DHT22;9573;50.948;11.600;2023-08-01T03:07:36;17.90;99.90
18882;DHT22;9573;50.948;11.600;2023-08-01T03:10:03;17.90;99.90
18882;DHT22;9573;50.948;11.600;2023-08-01T03:12:32;17.80;99.90
18882;DHT22;9573;50.948;11.600;2023-08-01T03:14:59;17.80;99.90
18882;DHT22;9573;50.948;11.600;2023-08-01T03:17:26;17.70;99.90
18882;DHT22;9573;50.948;11.600;2023-08-01T03:19:53;17.70;99.90
18882;DHT22;9573;50.948;11.600;2023-08-01T03:22:22;17.60;99.90
18882;DHT22;9573;50.948;11.600;2023-08-01T03:24:49;17.60;99.90
18882;DHT22;9573;50.948;11.600;2023-08-01T03:27:16;17.60;99.90
18882;DHT22;9573;50.948;11.600;2023-08-01T03:29:43;17.60;99.90
18882;DHT22;9573;50.948;11.600;2023-08-01T03:32:10;17.60;99.90
18882;DHT22;9573;50.948;11.600;2023-08-01T03:34:37;17.60;99.90
18882;DHT22;9573;50.948;11.600;2023-08-01T03:37:06;17.60;99.90
18882;DHT22;9573;50.948;11.600;2023-08-01T03:39:35;17.50;99.90
18882;DHT22;9573;50.948;11.600;2023-08-01T03:42:02;17.50;99.90
18882;DHT22;9573;50.948;11.600;2023-08-01T03:44:30;17.40;99.90
18882;DHT22;9573;50.948;11.600;2023-08-01T03:46:57;17.40;99.90
18882;DHT22;9573;50.948;11.600;2023-08-01T03:49:24;17.40;99.90
18882;DHT22;9573;50.948;11.600;2023-08-01T03:51:51;17.40;99.90
18882;DHT22;9573;50.948;11.600;2023-08-01T03:54:19;17.40;99.90
18882;DHT22;9573;50.948;11.600;2023-08-01T03:56:47;17.40;99.90
18882;DHT22;9573;50.948;11.600;2023-08-01T03:59:15;17.40;99.90
18882;DHT22;9573;50.948;11.600;2023-08-01T04:01:42;17.40;99.90
18882;DHT22;9573;50.948;11.600;2023-08-01T04:04:09;17.40;99.90
18882;DHT22;9573;50.948;11.600;2023-08-01T04:06:37;17.40;99.90
18882;DHT22;9573;50.948;11.600;2023-08-01T04:09:04;17.40;99.90
18882;DHT22;9573;50.948;11.600;2023-08-01T04:11:32;17.40;99.90
18882;DHT22;9573;50.948;11.600;2023-08-01T04:14:00;17.50;99.90
18882;DHT22;9573;50.948;11.600;2023-08-01T04:16:27;17.50;99.90
18882;DHT22;9573;50.948;11.600;2023-08-01T04:18:54;17.50;99.90
18882;DHT22;9573;50.948;11.600;2023-08-01T04:21:22;17.50;99.90
18882;DHT22;9573;50.948;11.600;2023-08-01T04:23:49;17.50;99.90
18882;DHT22;9573;50.948;11.600;2023-08-01T04:26:16;17.50;99.90
18882;DHT22;9573;50.948;11.600;2023-08-01T04:28:45;17.50;99.90
18882;DHT22;9573;50.948;11.600;2023-08-01T04:31:16;17.50;99.90
18882;DHT22;9573;50.948;11.600;2023-08-01T04:33:44;17.50;99.90
18882;DHT22;9573;50.948;11.600;2023-08-01T04:36:11;17.50;99.90
18882;DHT22;9573;50.948;11.600;2023-08-01T04:38:38;17.50;99.90
18882;DHT22;9573;50.948;11.600;2023-08-01T04:41:06;17.50;99.90
18882;DHT22;9573;50.948;11.600;2023-08-01T04:43:33;17.50;99.90
18882;DHT22;9573;50.948;11.600;2023-08-01T04:46:04;17.50;99.90
18882;DHT22;9573;50.948;11.600;2023-08-01T04:48:32;17.50;99.90
18882;DHT22;9573;50.948;11.600;2023-08-01T04:51:00;17.50;99.90
18882;DHT22;9573;50.948;11.600;2023-08-01T04:53:27;17.50;99.90
18882;DHT22;9573;50.948;11.600;2023-08-01T04:55:54;17.50;99.90
18882;DHT22;9573;50.948;11.600;2023-08-01T04:58:22;17.50;99.90
18882;DHT22;9573;50.948;11.600;2023-08-01T05:00:49;17.50;99.90
18882;DHT22;9573;50.948;11.600;2023-08-01T05:03:16;17.50;99.90
18882;DHT22;9573;50.948;11.600;2023-08-01T05:05:45;17.50;99.90
18882;DHT22;9573;50.948;11.600;2023-08-01T05:08:13;17.50;99.90
18882;DHT22;9573;50.948;11.600;2023-08-01T05:10:40;17.50;99.90
18882;DHT22;9573;50.948;11.600;2023-08-01T05:13:07;17.50;99.90
18882;DHT22;9573;50.948;11.600;2023-08-01T05:15:35;17.60;99.90
18882;DHT22;9573;50.948;11.600;2023-08-01T05:18:02;17.60;99.90
18882;DHT22;9573;50.948;11.600;2023-08-01T05:20:30;17.60;99.90
18882;DHT22;9573;50.948;11.600;2023-08-01T05:23:00;17.60;99.90
18882;DHT22;9573;50.948;11.600;2023-08-01T05:25:28;17.70;99.90
18882;DHT22;9573;50.948;11.600;2023-08-01T05:27:55;17.70;99.90
18882;DHT22;9573;50.948;11.600;2023-08-01T05:30:23;17.60;99.90
18882;DHT22;9573;50.948;11.600;2023-08-01T05:32:51;17.70;99.90
18882;DHT22;9573;50.948;11.600;2023-08-01T05:35:19;17.60;99.90
18882;DHT22;9573;50.948;11.600;2023-08-01T05:37:47;17.70;99.90
18882;DHT22;9573;50.948;11.600;2023-08-01T05:40:15;17.70;99.90
18882;DHT22;9573;50.948;11.600;2023-08-01T05:42:42;17.90;99.90
18882;DHT22;9573;50.948;11.600;2023-08-01T05:45:10;17.90;99.90
18882;DHT22;9573;50.948;11.600;2023-08-01T05:47:38;18.00;99.90
18882;DHT22;9573;50.948;11.600;2023-08-01T05:50:06;18.00;99.90
18882;DHT22;9573;50.948;11.600;2023-08-01T05:52:34;18.00;99.90
18882;DHT22;9573;50.948;11.600;2023-08-01T05:55:01;17.90;99.90
18882;DHT22;9573;50.948;11.600;2023-08-01T05:57:29;17.90;99.90
18882;DHT22;9573;50.948;11.600;2023-08-01T05:59:56;17.70;99.90
18882;DHT22;9573;50.948;11.600;2023-08-01T06:02:24;17.70;99.90
18882;DHT22;9573;50.948;11.600;2023-08-01T06:04:51;17.60;99.90
18882;DHT22;9573;50.948;11.600;2023-08-01T06:07:18;17.50;99.90
18882;DHT22;9573;50.948;11.600;2023-08-01T06:09:48;17.60;99.90
18882;DHT22;9573;50.948;11.600;2023-08-01T06:12:17;17.50;99.90
18882;DHT22;9573;50.948;11.600;2023-08-01T06:14:46;17.50;99.90
18882;DHT22;9573;50.948;11.600;2023-08-01T06:17:14;17.50;99.90
18882;DHT22;9573;50.948;11.600;2023-08-01T06:19:41;17.50;99.90
18882;DHT22;9573;50.948;11.600;2023-08-01T06:22:08;17.50;99.90
18882;DHT22;9573;50.948;11.600;2023-08-01T06:24:35;17.50;99.90
18882;DHT22;9573;50.948;11.600;2023-08-01T06:27:03;17.50;99.90
18882;DHT22;9573;50.948;11.600;2023-08-01T06:29:31;17.50;99.90
18882;DHT22;9573;50.948;11.600;2023-08-01T06:31:59;17.50;99.90
18882;DHT22;9573;50.948;11.600;2023-08-01T06:34:26;17.50;99.90
18882;DHT22;9573;50.948;11.600;2023-08-01T06:36:53;17.50;99.90
18882;DHT22;9573;50.948;11.600;2023-08-01T06:39:20;17.50;99.90
18882;DHT22;9573;50.948;11.600;2023-08-01T06:41:47;17.50;99.90
18882;DHT22;9573;50.948;11.600;2023-08-01T06:44:15;17.50;99.90
18882;DHT22;9573;50.948;11.600;2023-08-01T06:46:42;17.50;99.90
18882;DHT22;9573;50.948;11.600;2023-08-01T06:49:10;17.50;99.90
18882;DHT22;9573;50.948;11.600;2023-08-01T06:51:37;17.50;99.90
18882;DHT22;9573;50.948;11.600;2023-08-01T06:54:04;17.50;99.90
18882;DHT22;9573;50.948;11.600;2023-08-01T06:56:31;17.50;99.90
18882;DHT22;9573;50.948;11.600;2023-08-01T06:58:58;17.50;99.90
18882;DHT22;9573;50.948;11.600;2023-08-01T07:01:25;17.50;99.90
18882;DHT22;9573;50.948;11.600;2023-08-01T07:03:52;17.50;99.90
18882;DHT22;9573;50.948;11.600;2023-08-01T07:06:23;17.50;99.90
18882;DHT22;9573;50.948;11.600;2023-08-01T07:08:50;17.40;99.90
18882;DHT22;9573;50.948;11.600;2023-08-01T07:11:17;17.30;99.90
18882;DHT22;9573;50.948;11.600;2023-08-01T07:13:44;17.20;99.90
18882;DHT22;9573;50.948;11.600;2023-08-01T07:16:11;17.10;99.90
18882;DHT22;9573;50.948;11.600;2023-08-01T07:18:38;17.10;99.90
18882;DHT22;9573;50.948;11.600;2023-08-01T07:21:06;17.10;99.90
18882;DHT22;9573;50.948;11.600;2023-08-01T07:23:35;17.20;99.90
18882;DHT22;9573;50.948;11.600;2023-08-01T07:26:02;17.20;99.90
18882;DHT22;9573;50.948;11.600;2023-08-01T07:28:29;17.30;99.90
18882;DHT22;9573;50.948;11.600;2023-08-01T07:31:00;17.40;99.90
18882;DHT22;9573;50.948;11.600;2023-08-01T07:33:27;17.60;99.90
18882;DHT22;9573;50.948;11.600;2023-08-01T07:35:54;17.80;99.90
18882;DHT22;9573;50.948;11.600;2023-08-01T07:38:21;18.00;99.90
18882;DHT22;9573;50.948;11.600;2023-08-01T07:40:50;18.40;99.90
18882;DHT22;9573;50.948;11.600;2023-08-01T07:43:17;18.40;99.90
18882;DHT22;9573;50.948;11.600;2023-08-01T07:45:44;18.60;99.90
18882;DHT22;9573;50.948;11.600;2023-08-01T07:48:11;18.80;99.90
18882;DHT22;9573;50.948;11.600;2023-08-01T07:50:38;19.00;99.90
18882;DHT22;9573;50.948;11.600;2023-08-01T07:53:05;19.10;99.90
18882;DHT22;9573;50.948;11.600;2023-08-01T07:55:33;19.10;99.90
18882;DHT22;9573;50.948;11.600;2023-08-01T07:58:02;19.10;99.90
18882;DHT22;9573;50.948;11.600;2023-08-01T08:00:29;19.10;99.90
18882;DHT22;9573;50.948;11.600;2023-08-01T08:02:57;19.10;99.90
18882;DHT22;9573;50.948;11.600;2023-08-01T08:05:24;19.10;99.90
18882;DHT22;9573;50.948;11.600;2023-08-01T08:07:52;19.00;99.90
18882;DHT22;9573;50.948;11.600;2023-08-01T08:10:19;18.90;99.90
18882;DHT22;9573;50.948;11.600;2023-08-01T08:12:46;18.90;99.90
18882;DHT22;9573;50.948;11.600;2023-08-01T08:15:14;18.80;99.90
18882;DHT22;9573;50.948;11.600;2023-08-01T08:17:41;18.90;99.90
18882;DHT22;9573;50.948;11.600;2023-08-01T08:20:09;19.00;99.90
18882;DHT22;9573;50.948;11.600;2023-08-01T08:22:36;19.00;99.90
18882;DHT22;9573;50.948;11.600;2023-08-01T08:25:03;19.10;99.90
18882;DHT22;9573;50.948;11.600;2023-08-01T08:27:31;19.10;99.90
18882;DHT22;9573;50.948;11.600;2023-08-01T08:29:58;19.00;99.90
18882;DHT22;9573;50.948;11.600;2023-08-01T08:32:26;19.00;99.90
18882;DHT22;9573;50.948;11.600;2023-08-01T08:34:53;19.00;99.90
18882;DHT22;9573;50.948;11.600;2023-08-01T08:37:20;18.90;99.90
18882;DHT22;9573;50.948;11.600;2023-08-01T08:39:47;19.00;99.90
18882;DHT22;9573;50.948;11.600;2023-08-01T08:42:17;18.90;99.90
18882;DHT22;9573;50.948;11.600;2023-08-01T08:44:48;18.90;99.90
18882;DHT22;9573;50.948;11.600;2023-08-01T08:47:17;19.00;99.90
18882;DHT22;9573;50.948;11.600;2023-08-01T08:49:46;19.10;99.90
18882;DHT22;9573;50.948;11.600;2023-08-01T08:52:13;19.30;99.90
18882;DHT22;9573;50.948;11.600;2023-08-01T08:54:41;19.40;99.90
18882;DHT22;9573;50.948;11.600;2023-08-01T08:57:09;19.60;99.90
18882;DHT22;9573;50.948;11.600;2023-08-01T08:59:37;19.70;99.90
18882;DHT22;9573;50.948;11.600;2023-08-01T09:02:05;19.80;99.90
18882;DHT22;9573;50.948;11.600;2023-08-01T09:04:33;19.80;99.90
18882;DHT22;9573;50.948;11.600;2023-08-01T09:07:03;19.80;99.90
18882;DHT22;9573;50.948;11.600;2023-08-01T09:09:34;19.80;99.90
18882;DHT22;9573;50.948;11.600;2023-08-01T09:12:02;19.80;99.90
18882;DHT22;9573;50.948;11.600;2023-08-01T09:14:33;19.70;99.90
18882;DHT22;9573;50.948;11.600;2023-08-01T09:17:06;19.50;99.90
18882;DHT22;9573;50.948;11.600;2023-08-01T09:19:34;19.20;99.90
18882;DHT22;9573;50.948;11.600;2023-08-01T09:22:10;18.90;99.90
18882;DHT22;9573;50.948;11.600;2023-08-01T09:24:38;18.60;99.90
18882;DHT22;9573;50.948;11.600;2023-08-01T09:27:06;18.30;99.90
18882;DHT22;9573;50.948;11.600;2023-08-01T09:29:34;18.10;99.90
18882;DHT22;9573;50.948;11.600;2023-08-01T09:32:11;18.10;99.90
18882;DHT22;9573;50.948;11.600;2023-08-01T09:34:40;17.90;99.90
18882;DHT22;9573;50.948;11.600;2023-08-01T09:37:09;17.60;99.90
18882;DHT22;9573;50.948;11.600;2023-08-01T09:39:36;17.40;99.90
18882;DHT22;9573;50.948;11.600;2023-08-01T09:42:03;17.20;99.90
18882;DHT22;9573;50.948;11.600;2023-08-01T09:44:31;17.20;99.90
18882;DHT22;9573;50.948;11.600;2023-08-01T09:47:02;17.10;99.90
18882;DHT22;9573;50.948;11.600;2023-08-01T09:49:30;17.10;99.90
18882;DHT22;9573;50.948;11.600;2023-08-01T09:51:58;17.10;99.90
18882;DHT22;9573;50.948;11.600;2023-08-01T09:54:28;17.20;99.90
18882;DHT22;9573;50.948;11.600;2023-08-01T09:56:55;17.40;99.90
18882;DHT22;9573;50.948;11.600;2023-08-01T09:59:23;17.60;99.90
18882;DHT22;9573;50.948;11.600;2023-08-01T10:01:52;18.00;99.90
18882;DHT22;9573;50.948;11.600;2023-08-01T10:04:23;18.50;99.90
18882;DHT22;9573;50.948;11.600;2023-08-01T10:06:54;19.00;99.90
18882;DHT22;9573;50.948;11.600;2023-08-01T10:09:25;19.60;99.90
18882;DHT22;9573;50.948;11.600;2023-08-01T10:11:56;19.90;99.90
18882;DHT22;9573;50.948;11.600;2023-08-01T10:14:25;20.10;99.90
18882;DHT22;9573;50.948;11.600;2023-08-01T10:16:53;20.10;99.90
18882;DHT22;9573;50.948;11.600;2023-08-01T10:19:21;20.20;99.90
18882;DHT22;9573;50.948;11.600;2023-08-01T10:21:49;20.50;99.90
18882;DHT22;9573;50.948;11.600;2023-08-01T10:24:17;21.10;99.90
18882;DHT22;9573;50.948;11.600;2023-08-01T10:26:45;21.30;99.90
18882;DHT22;9573;50.948;11.600;2023-08-01T10:29:13;21.40;99.90
18882;DHT22;9573;50.948;11.600;2023-08-01T10:31:50;21.40;99.90
18882;DHT22;9573;50.948;11.600;2023-08-01T10:34:19;21.40;99.90
18882;DHT22;9573;50.948;11.600;2023-08-01T10:36:53;21.50;99.90
18882;DHT22;9573;50.948;11.600;2023-08-01T10:39:21;21.60;99.90
18882;DHT22;9573;50.948;11.600;2023-08-01T10:41:57;21.90;99.90
18882;DHT22;9573;50.948;11.600;2023-08-01T10:44:27;22.80;99.90
18882;DHT22;9573;50.948;11.600;2023-08-01T10:46:57;25.20;99.90
18882;DHT22;9573;50.948;11.600;2023-08-01T10:49:36;26.50;99.90
18882;DHT22;9573;50.948;11.600;2023-08-01T10:52:15;26.50;99.90
18882;DHT22;9573;50.948;11.600;2023-08-01T10:54:43;27.10;99.90
18882;DHT22;9573;50.948;11.600;2023-08-01T10:57:15;28.30;99.90
18882;DHT22;9573;50.948;11.600;2023-08-01T10:59:44;28.50;99.90
18882;DHT22;9573;50.948;11.600;2023-08-01T11:02:12;28.30;99.90
18882;DHT22;9573;50.948;11.600;2023-08-01T11:04:55;28.30;99.90
18882;DHT22;9573;50.948;11.600;2023-08-01T11:07:23;28.50;99.90
18882;DHT22;9573;50.948;11.600;2023-08-01T11:10:05;29.20;99.90
18882;DHT22;9573;50.948;11.600;2023-08-01T11:12:34;29.90;99.90
18882;DHT22;9573;50.948;11.600;2023-08-01T11:15:06;30.30;99.90
18882;DHT22;9573;50.948;11.600;2023-08-01T11:17:35;30.00;99.90
18882;DHT22;9573;50.948;11.600;2023-08-01T11:20:04;29.50;99.90
18882;DHT22;9573;50.948;11.600;2023-08-01T11:22:33;29.10;99.90
18882;DHT22;9573;50.948;11.600;2023-08-01T11:25:00;28.50;99.90
18882;DHT22;9573;50.948;11.600;2023-08-01T11:27:28;28.30;99.90
18882;DHT22;9573;50.948;11.600;2023-08-01T11:29:55;28.30;99.90
18882;DHT22;9573;50.948;11.600;2023-08-01T11:32:35;28.20;99.90
18882;DHT22;9573;50.948;11.600;2023-08-01T11:35:03;28.40;99.90
18882;DHT22;9573;50.948;11.600;2023-08-01T11:37:31;28.60;99.90
18882;DHT22;9573;50.948;11.600;2023-08-01T11:39:59;27.80;99.90
18882;DHT22;9573;50.948;11.600;2023-08-01T11:42:30;27.20;99.90
18882;DHT22;9573;50.948;11.600;2023-08-01T11:45:08;27.20;99.90
18882;DHT22;9573;50.948;11.600;2023-08-01T11:47:37;27.40;99.90
18882;DHT22;9573;50.948;11.600;2023-08-01T11:50:06;28.10;99.90
18882;DHT22;9573;50.948;11.600;2023-08-01T11:52:34;28.80;99.90
18882;DHT22;9573;50.948;11.600;2023-08-01T11:55:01;29.20;98.90
18882;DHT22;9573;50.948;11.600;2023-08-01T11:57:28;29.60;98.80
18882;DHT22;9573;50.948;11.600;2023-08-01T11:59:56;30.20;96.50
18882;DHT22;9573;50.948;11.600;2023-08-01T12:02:23;30.50;94.90
18882;DHT22;9573;50.948;11.600;2023-08-01T12:04:52;30.70;93.00
18882;DHT22;9573;50.948;11.600;2023-08-01T12:07:20;30.50;92.10
18882;DHT22;9573;50.948;11.600;2023-08-01T12:09:56;30.40;93.00
18882;DHT22;9573;50.948;11.600;2023-08-01T12:12:23;30.80;91.90
18882;DHT22;9573;50.948;11.600;2023-08-01T12:14:50;31.00;92.10
18882;DHT22;9573;50.948;11.600;2023-08-01T12:17:18;31.20;91.30
18882;DHT22;9573;50.948;11.600;2023-08-01T12:19:45;30.90;91.20
18882;DHT22;9573;50.948;11.600;2023-08-01T12:22:14;30.40;90.70
18882;DHT22;9573;50.948;11.600;2023-08-01T12:24:41;29.50;92.10
18882;DHT22;9573;50.948;11.600;2023-08-01T12:27:09;29.10;92.40
18882;DHT22;9573;50.948;11.600;2023-08-01T12:29:36;29.40;91.90
18882;DHT22;9573;50.948;11.600;2023-08-01T12:32:04;29.60;91.20
18882;DHT22;9573;50.948;11.600;2023-08-01T12:34:32;29.70;91.00
18882;DHT22;9573;50.948;11.600;2023-08-01T12:37:00;29.20;91.10
18882;DHT22;9573;50.948;11.600;2023-08-01T12:39:29;28.80;92.30
18882;DHT22;9573;50.948;11.600;2023-08-01T12:41:56;28.60;93.20
18882;DHT22;9573;50.948;11.600;2023-08-01T12:44:23;28.20;94.00
18882;DHT22;9573;50.948;11.600;2023-08-01T12:46:50;27.80;94.40
18882;DHT22;9573;50.948;11.600;2023-08-01T12:49:18;27.60;95.10
18882;DHT22;9573;50.948;11.600;2023-08-01T12:51:45;27.20;94.50
18882;DHT22;9573;50.948;11.600;2023-08-01T12:54:12;26.70;95.40
18882;DHT22;9573;50.948;11.600;2023-08-01T12:56:40;26.40;96.10
18882;DHT22;9573;50.948;11.600;2023-08-01T12:59:07;26.20;97.30
18882;DHT22;9573;50.948;11.600;2023-08-01T13:01:34;26.00;98.10
18882;DHT22;9573;50.948;11.600;2023-08-01T13:04:02;25.90;97.60
18882;DHT22;9573;50.948;11.600;2023-08-01T13:06:29;25.60;98.00
18882;DHT22;9573;50.948;11.600;2023-08-01T13:08:56;25.40;98.80
18882;DHT22;9573;50.948;11.600;2023-08-01T13:11:24;25.30;99.20
18882;DHT22;9573;50.948;11.600;2023-08-01T13:13:52;24.60;99.90
18882;DHT22;9573;50.948;11.600;2023-08-01T13:16:19;23.60;99.90
18882;DHT22;9573;50.948;11.600;2023-08-01T13:18:46;22.80;99.90
18882;DHT22;9573;50.948;11.600;2023-08-01T13:21:14;22.50;99.90
18882;DHT22;9573;50.948;11.600;2023-08-01T13:23:41;22.60;99.90
18882;DHT22;9573;50.948;11.600;2023-08-01T13:26:08;23.10;99.90
18882;DHT22;9573;50.948;11.600;2023-08-01T13:28:35;23.90;99.90
18882;DHT22;9573;50.948;11.600;2023-08-01T13:31:03;24.30;99.90
18882;DHT22;9573;50.948;11.600;2023-08-01T13:33:31;24.30;99.90
18882;DHT22;9573;50.948;11.600;2023-08-01T13:35:58;24.20;99.90
18882;DHT22;9573;50.948;11.600;2023-08-01T13:38:25;24.00;99.90
18882;DHT22;9573;50.948;11.600;2023-08-01T13:40:52;23.80;99.90
18882;DHT22;9573;50.948;11.600;2023-08-01T13:43:19;23.60;99.90
18882;DHT22;9573;50.948;11.600;2023-08-01T13:45:46;23.40;99.90
18882;DHT22;9573;50.948;11.600;2023-08-01T13:48:15;23.40;99.90
18882;DHT22;9573;50.948;11.600;2023-08-01T13:50:42;23.60;99.90
18882;DHT22;9573;50.948;11.600;2023-08-01T13:53:09;23.60;99.90
18882;DHT22;9573;50.948;11.600;2023-08-01T13:55:39;23.60;99.90
18882;DHT22;9573;50.948;11.600;2023-08-01T13:58:06;23.70;99.90
18882;DHT22;9573;50.948;11.600;2023-08-01T14:00:33;23.60;99.90
18882;DHT22;9573;50.948;11.600;2023-08-01T14:03:00;23.30;99.90
18882;DHT22;9573;50.948;11.600;2023-08-01T14:05:29;23.30;99.90
18882;DHT22;9573;50.948;11.600;2023-08-01T14:07:56;23.30;99.90
18882;DHT22;9573;50.948;11.600;2023-08-01T14:10:25;23.30;99.90
18882;DHT22;9573;50.948;11.600;2023-08-01T14:12:52;23.50;99.90
18882;DHT22;9573;50.948;11.600;2023-08-01T14:15:20;23.70;99.90
18882;DHT22;9573;50.948;11.600;2023-08-01T14:17:48;23.90;99.90
18882;DHT22;9573;50.948;11.600;2023-08-01T14:20:15;24.10;99.90
18882;DHT22;9573;50.948;11.600;2023-08-01T14:22:44;24.20;99.90
18882;DHT22;9573;50.948;11.600;2023-08-01T14:25:11;24.30;99.90
18882;DHT22;9573;50.948;11.600;2023-08-01T14:27:38;24.20;99.90
18882;DHT22;9573;50.948;11.600;2023-08-01T14:30:07;24.30;99.90
18882;DHT22;9573;50.948;11.600;2023-08-01T14:32:37;24.30;99.90
18882;DHT22;9573;50.948;11.600;2023-08-01T14:35:05;24.30;99.90
18882;DHT22;9573;50.948;11.600;2023-08-01T14:37:33;24.30;99.90
18882;DHT22;9573;50.948;11.600;2023-08-01T14:40:01;24.30;99.90
18882;DHT22;9573;50.948;11.600;2023-08-01T14:42:29;24.20;99.90
18882;DHT22;9573;50.948;11.600;2023-08-01T14:44:56;24.30;99.90
18882;DHT22;9573;50.948;11.600;2023-08-01T14:47:23;24.30;99.90
18882;DHT22;9573;50.948;11.600;2023-08-01T14:49:50;24.50;99.90
18882;DHT22;9573;50.948;11.600;2023-08-01T14:52:18;24.90;99.90
18882;DHT22;9573;50.948;11.600;2023-08-01T14:54:45;25.40;99.90
18882;DHT22;9573;50.948;11.600;2023-08-01T14:57:13;25.70;99.90
18882;DHT22;9573;50.948;11.600;2023-08-01T14:59:40;26.00;99.90
18882;DHT22;9573;50.948;11.600;2023-08-01T15:02:07;26.20;99.90
18882;DHT22;9573;50.948;11.600;2023-08-01T15:04:34;26.20;99.90
18882;DHT22;9573;50.948;11.600;2023-08-01T15:07:02;25.90;99.70
18882;DHT22;9573;50.948;11.600;2023-08-01T15:09:29;25.60;99.90
18882;DHT22;9573;50.948;11.600;2023-08-01T15:11:56;25.40;99.90
18882;DHT22;9573;50.948;11.600;2023-08-01T15:14:25;25.30;99.90
18882;DHT22;9573;50.948;11.600;2023-08-01T15:16:52;25.40;99.90
18882;DHT22;9573;50.948;11.600;2023-08-01T15:19:19;25.20;99.90
18882;DHT22;9573;50.948;11.600;2023-08-01T15:21:46;25.20;99.90
18882;DHT22;9573;50.948;11.600;2023-08-01T15:24:13;25.00;99.90
18882;DHT22;9573;50.948;11.600;2023-08-01T15:26:40;24.90;99.90
18882;DHT22;9573;50.948;11.600;2023-08-01T15:29:07;24.70;99.90
18882;DHT22;9573;50.948;11.600;2023-08-01T15:31:36;24.50;99.90
18882;DHT22;9573;50.948;11.600;2023-08-01T15:34:03;24.30;99.90